createdAt,value
2022-10-02T00:00:20.837Z,1.00
2022-10-02T00:03:17.486Z,1.40
2022-10-02T00:06:14.550Z,1.20
2022-10-02T00:09:04.420Z,1.13
2022-10-02T00:11:56.935Z,0.82
2022-10-02T00:14:46.638Z,1.67
2022-10-02T00:17:40.418Z,1.20
2022-10-02T00:20:39.348Z,1.00
2022-10-02T00:23:43.899Z,1.40
2022-10-02T00:26:37.099Z,1.23
2022-10-02T00:29:39.848Z,0.85
2022-10-02T00:33:11.091Z,0.82
2022-10-02T00:36:17.349Z,1.10
2022-10-02T00:39:25.883Z,1.08
2022-10-02T00:42:39.528Z,1.20
2022-10-02T00:46:00.056Z,1.35
2022-10-02T00:49:05.162Z,1.00
2022-10-02T00:52:12.888Z,1.20
2022-10-02T00:55:17.839Z,1.40
2022-10-02T00:58:26.105Z,1.40
2022-10-02T01:01:18.749Z,1.05
2022-10-02T01:04:11.373Z,1.57
2022-10-02T01:06:58.587Z,1.70
2022-10-02T01:09:48.195Z,1.30
2022-10-02T01:12:35.207Z,1.88
2022-10-02T01:15:29.237Z,1.45
2022-10-02T01:18:16.202Z,1.50
2022-10-02T01:21:12.002Z,1.30
2022-10-02T01:24:15.664Z,1.40
2022-10-02T01:27:02.451Z,1.65
2022-10-02T01:29:55.706Z,1.67
2022-10-02T01:32:57.631Z,1.00
2022-10-02T01:35:44.948Z,1.35
2022-10-02T01:38:32.065Z,1.20
2022-10-02T01:41:18.900Z,1.35
2022-10-02T01:44:05.741Z,1.55
2022-10-02T01:46:52.483Z,1.65
2022-10-02T01:49:57.601Z,1.50
2022-10-02T01:53:02.932Z,1.27
2022-10-02T01:56:01.167Z,0.95
2022-10-02T01:59:00.800Z,0.95
2022-10-02T02:01:58.750Z,1.20
2022-10-02T02:04:53.034Z,1.05
2022-10-02T02:07:49.171Z,1.25
2022-10-02T02:11:02.338Z,1.42
2022-10-02T02:14:01.411Z,1.13
2022-10-02T02:16:54.584Z,1.13
2022-10-02T02:19:49.048Z,1.10
2022-10-02T02:22:44.126Z,1.08
2022-10-02T02:25:34.728Z,1.20
2022-10-02T02:28:23.157Z,1.20
2022-10-02T02:31:13.034Z,1.73
2022-10-02T02:33:50.546Z,1.48
2022-10-02T02:36:22.179Z,1.70
2022-10-02T02:38:57.521Z,1.27
2022-10-02T02:41:33.443Z,1.40
2022-10-02T02:44:10.256Z,1.25
2022-10-02T02:47:01.873Z,1.83
2022-10-02T02:49:32.593Z,1.13
2022-10-02T02:52:02.296Z,1.02
2022-10-02T02:54:45.597Z,1.30
2022-10-02T02:59:44.451Z,1.80
2022-10-02T03:02:11.004Z,1.30
2022-10-02T03:04:37.637Z,1.95
2022-10-02T03:07:05.584Z,2.08
2022-10-02T03:09:33.471Z,1.92
2022-10-02T03:12:04.291Z,1.20
2022-10-02T03:14:39.785Z,2.70
2022-10-02T03:17:38.908Z,1.88
2022-10-02T03:20:18.223Z,1.35
2022-10-02T03:23:01.043Z,1.13
2022-10-02T03:25:53.617Z,0.95
2022-10-02T03:28:54.401Z,1.10
2022-10-02T03:31:21.870Z,1.25
2022-10-02T03:33:50.744Z,1.23
2022-10-02T03:36:21.157Z,2.28
2022-10-02T03:39:00.669Z,1.27
2022-10-02T03:41:32.942Z,0.90
2022-10-02T03:43:59.403Z,1.15
2022-10-02T03:46:27.987Z,1.27
2022-10-02T03:48:56.413Z,1.75
2022-10-02T03:51:24.293Z,1.40
2022-10-02T03:53:52.121Z,1.55
2022-10-02T03:56:23.405Z,2.05
2022-10-02T03:58:55.295Z,2.00
2022-10-02T04:01:48.918Z,1.42
2022-10-02T04:04:30.364Z,1.15
2022-10-02T04:07:04.528Z,1.17
2022-10-02T04:09:39.660Z,2.22
2022-10-02T04:12:12.878Z,1.33
2022-10-02T04:15:18.589Z,1.30
2022-10-02T04:17:58.154Z,1.33
2022-10-02T04:20:33.123Z,1.13
2022-10-02T04:23:24.117Z,1.00
2022-10-02T04:25:57.336Z,1.58
2022-10-02T04:28:32.157Z,1.02
2022-10-02T04:31:01.366Z,1.10
2022-10-02T04:33:28.271Z,1.38
2022-10-02T04:36:33.667Z,0.52
2022-10-02T04:39:28.548Z,0.60
2022-10-02T04:42:24.233Z,0.82
2022-10-02T04:45:02.214Z,1.02
2022-10-02T04:47:55.184Z,1.20
2022-10-02T04:50:56.985Z,0.90
2022-10-02T04:54:00.976Z,2.20
2022-10-02T04:56:50.258Z,1.17
2022-10-02T04:59:31.618Z,1.20
2022-10-02T05:02:14.191Z,1.17
2022-10-02T05:05:11.410Z,1.23
2022-10-02T05:07:46.210Z,1.10
2022-10-02T05:10:21.613Z,0.95
2022-10-02T05:12:48.041Z,1.55
2022-10-02T05:15:39.482Z,1.85
2022-10-02T05:18:45.543Z,1.27
2022-10-02T05:21:38.265Z,0.77
2022-10-02T05:24:39.828Z,1.33
2022-10-02T05:27:31.422Z,0.85
2022-10-02T05:30:13.297Z,1.20
2022-10-02T05:33:07.496Z,1.60
2022-10-02T05:35:47.171Z,0.82
2022-10-02T05:38:27.963Z,1.23
2022-10-02T05:41:06.608Z,1.98
2022-10-02T05:44:15.016Z,0.90
2022-10-02T05:46:51.521Z,1.40
2022-10-02T05:49:23.009Z,0.70
2022-10-02T05:51:53.616Z,1.40
2022-10-02T05:54:20.040Z,1.45
2022-10-02T05:57:04.937Z,0.73
2022-10-02T05:59:42.993Z,0.95
2022-10-02T06:02:24.242Z,1.20
2022-10-02T06:05:22.463Z,1.13
2022-10-02T06:07:53.453Z,1.13
2022-10-02T06:10:28.029Z,1.02
2022-10-02T06:13:13.739Z,0.90
2022-10-02T06:15:49.151Z,1.40
2022-10-02T06:18:23.801Z,1.63
2022-10-02T06:21:05.102Z,1.33
2022-10-02T06:23:38.338Z,1.13
2022-10-02T06:26:10.905Z,1.30
2022-10-02T06:29:00.479Z,1.60
2022-10-02T06:31:29.838Z,1.38
2022-10-02T06:33:57.374Z,1.50
2022-10-02T06:36:39.250Z,1.42
2022-10-02T06:39:21.972Z,1.17
2022-10-02T06:42:05.609Z,2.25
2022-10-02T06:44:48.854Z,1.20
2022-10-02T06:50:16.828Z,1.85
2022-10-02T06:53:02.082Z,1.00
2022-10-02T06:55:52.921Z,2.05
2022-10-02T06:58:40.165Z,1.63
2022-10-02T07:01:29.962Z,1.05
2022-10-02T07:04:22.693Z,1.95
2022-10-02T07:07:04.810Z,1.83
2022-10-02T07:09:40.339Z,1.40
2022-10-02T07:12:20.355Z,1.80
2022-10-02T07:14:51.058Z,1.35
2022-10-02T07:17:25.525Z,1.40
2022-10-02T07:20:37.143Z,0.95
2022-10-02T07:23:13.513Z,1.25
2022-10-02T07:25:54.624Z,1.70
2022-10-02T07:28:43.192Z,1.92
2022-10-02T07:31:39.291Z,1.33
2022-10-02T07:34:21.221Z,1.75
2022-10-02T07:37:32.171Z,1.00
2022-10-02T07:40:40.164Z,1.15
2022-10-02T07:43:24.504Z,1.30
2022-10-02T07:46:27.860Z,1.40
2022-10-02T07:49:28.162Z,1.00
2022-10-02T07:52:03.551Z,0.95
2022-10-02T07:54:48.493Z,2.17
2022-10-02T07:57:31.155Z,1.23
2022-10-02T08:00:06.580Z,0.77
2022-10-02T08:03:12.852Z,0.65
2022-10-02T08:05:45.852Z,1.33
2022-10-02T08:10:53.451Z,1.30
2022-10-02T08:13:25.201Z,1.88
2022-10-02T08:15:55.933Z,1.95
2022-10-02T08:18:53.091Z,2.25
2022-10-02T08:21:24.279Z,1.73
2022-10-02T08:24:10.615Z,1.20
2022-10-02T08:26:42.955Z,1.23
2022-10-02T08:29:22.552Z,1.23
2022-10-02T08:31:54.958Z,1.02
2022-10-02T08:34:26.090Z,1.25
2022-10-02T08:36:55.527Z,1.67
2022-10-02T08:39:31.099Z,1.00
2022-10-02T08:42:22.396Z,0.90
2022-10-02T08:45:02.224Z,0.70
2022-10-02T08:48:20.688Z,1.00
2022-10-02T08:51:05.468Z,1.23
2022-10-02T08:53:54.196Z,1.33
2022-10-02T08:56:35.869Z,1.08
2022-10-02T08:59:19.042Z,0.85
2022-10-02T09:02:13.124Z,1.42
2022-10-02T09:05:06.853Z,1.05
2022-10-02T09:07:54.950Z,1.15
2022-10-02T09:10:45.211Z,1.27
2022-10-02T09:13:43.163Z,1.00
2022-10-02T09:16:14.341Z,1.38
2022-10-02T09:19:03.789Z,1.20
2022-10-02T09:22:21.793Z,1.20
2022-10-02T09:25:13.250Z,0.85
2022-10-02T09:28:07.777Z,1.52
2022-10-02T09:31:11.245Z,1.27
2022-10-02T09:34:15.716Z,1.42
2022-10-02T09:37:08.638Z,1.35
2022-10-02T09:40:03.410Z,1.15
2022-10-02T09:42:47.934Z,1.27
2022-10-02T09:45:43.839Z,1.67
2022-10-02T09:48:48.130Z,0.90
2022-10-02T09:54:04.768Z,1.13
2022-10-02T09:56:49.608Z,1.20
2022-10-02T09:59:34.390Z,1.05
2022-10-02T10:02:40.454Z,1.15
2022-10-02T10:05:35.109Z,1.08
2022-10-02T10:08:31.834Z,1.13
2022-10-02T10:11:10.547Z,2.15
2022-10-02T10:13:48.817Z,1.50
2022-10-02T10:16:35.977Z,1.45
2022-10-02T10:19:26.681Z,1.70
2022-10-02T10:22:13.016Z,1.25
2022-10-02T10:24:39.676Z,1.08
2022-10-02T10:27:09.122Z,1.45
2022-10-02T10:30:13.720Z,2.03
2022-10-02T10:33:19.856Z,1.52
2022-10-02T10:35:56.036Z,0.90
2022-10-02T10:38:51.231Z,2.13
2022-10-02T10:41:23.846Z,1.10
2022-10-02T10:44:23.893Z,1.52
2022-10-02T10:47:28.964Z,1.48
2022-10-02T10:50:25.548Z,1.30
2022-10-02T10:53:19.525Z,1.55
2022-10-02T10:56:08.043Z,1.48
2022-10-02T10:59:16.613Z,1.35
2022-10-02T11:02:02.766Z,2.03
2022-10-02T11:05:00.605Z,1.50
2022-10-02T11:08:06.110Z,1.65
2022-10-02T11:10:56.884Z,1.90
2022-10-02T11:13:54.479Z,2.13
2022-10-02T11:16:58.225Z,1.20
2022-10-02T11:19:42.327Z,1.63
2022-10-02T11:22:31.291Z,2.03
2022-10-02T11:25:13.163Z,0.85
2022-10-02T11:28:14.516Z,1.25
2022-10-02T11:31:11.988Z,1.40
2022-10-02T11:33:44.239Z,2.13
2022-10-02T11:36:10.636Z,1.98
2022-10-02T11:38:38.449Z,1.55
2022-10-02T11:41:13.711Z,1.35
2022-10-02T11:44:20.865Z,0.95
2022-10-02T11:47:21.299Z,1.42
2022-10-02T11:50:00.047Z,1.20
2022-10-02T11:52:50.300Z,1.15
2022-10-02T11:55:36.632Z,1.48
2022-10-02T11:58:36.733Z,1.33
2022-10-02T12:01:29.745Z,1.30
2022-10-02T12:04:20.643Z,1.17
2022-10-02T12:06:59.035Z,1.33
2022-10-02T12:09:41.981Z,1.40
2022-10-02T12:12:25.760Z,0.90
2022-10-02T12:15:12.103Z,1.45
2022-10-02T12:17:59.730Z,1.02
2022-10-02T12:21:03.613Z,1.25
2022-10-02T12:24:04.268Z,1.50
2022-10-02T12:27:09.607Z,1.60
2022-10-02T12:29:55.960Z,1.00
2022-10-02T12:32:44.158Z,1.30
2022-10-02T12:35:32.281Z,1.45
2022-10-02T12:38:28.378Z,1.25
2022-10-02T12:40:57.639Z,1.42
2022-10-02T12:43:53.081Z,1.42
2022-10-02T12:46:59.617Z,0.95
2022-10-02T12:49:46.429Z,1.20
2022-10-02T12:52:28.633Z,1.73
2022-10-02T12:55:32.766Z,0.88
2022-10-02T12:58:02.125Z,1.10
2022-10-02T13:01:04.020Z,1.23
2022-10-02T13:03:42.444Z,0.60
2022-10-02T13:06:46.477Z,1.00
2022-10-02T13:09:16.064Z,0.98
2022-10-02T13:12:12.906Z,0.98
2022-10-02T13:14:50.905Z,0.77
2022-10-02T13:17:28.721Z,0.57
2022-10-02T13:20:05.923Z,1.35
2022-10-02T13:22:45.383Z,0.65
2022-10-02T13:25:34.968Z,0.85
2022-10-02T13:28:25.964Z,0.90
2022-10-02T13:31:18.220Z,0.77
2022-10-02T13:34:17.561Z,0.68
2022-10-02T13:36:46.708Z,0.60
2022-10-02T13:39:40.733Z,0.80
2022-10-02T13:42:18.297Z,0.88
2022-10-02T13:45:13.839Z,0.60
2022-10-02T13:47:44.064Z,0.77
2022-10-02T13:50:29.739Z,0.90
2022-10-02T13:53:04.960Z,0.90
2022-10-02T13:55:44.296Z,0.90
2022-10-02T13:58:37.577Z,1.20
2022-10-02T14:01:23.308Z,0.98
2022-10-02T14:04:34.151Z,0.60
2022-10-02T14:07:06.323Z,0.70
2022-10-02T14:09:41.738Z,0.80
2022-10-02T14:12:27.615Z,0.50
2022-10-02T14:14:56.675Z,0.73
2022-10-02T14:17:40.395Z,0.50
2022-10-02T14:20:18.996Z,0.40
2022-10-02T14:22:57.451Z,0.88
2022-10-02T14:25:42.946Z,0.73
2022-10-02T14:28:18.470Z,0.70
2022-10-02T14:31:13.279Z,0.57
2022-10-02T14:33:44.848Z,0.73
2022-10-02T14:36:25.884Z,0.77
2022-10-02T14:39:07.582Z,0.70
2022-10-02T14:41:55.181Z,0.70
2022-10-02T14:44:56.862Z,0.45
2022-10-02T14:47:42.232Z,0.68
2022-10-02T14:50:40.691Z,0.68
2022-10-02T14:53:37.696Z,0.95
2022-10-02T14:56:22.976Z,0.60
2022-10-02T14:59:10.940Z,0.70
2022-10-02T15:02:01.523Z,1.30
2022-10-02T15:04:46.788Z,0.55
2022-10-02T15:07:18.141Z,0.65
2022-10-02T15:09:59.885Z,1.13
2022-10-02T15:12:43.643Z,0.70
2022-10-02T15:15:32.007Z,0.43
2022-10-02T15:18:30.886Z,0.45
2022-10-02T15:21:05.473Z,0.60
2022-10-02T15:23:42.863Z,0.50
2022-10-02T15:26:39.381Z,0.50
2022-10-02T15:29:14.530Z,0.80
2022-10-02T15:32:20.985Z,0.43
2022-10-02T15:34:52.003Z,0.68
2022-10-02T15:37:35.388Z,0.68
2022-10-02T15:40:22.222Z,0.73
2022-10-02T15:43:23.371Z,0.75
2022-10-02T15:46:22.264Z,0.68
2022-10-02T15:49:04.643Z,0.90
2022-10-02T15:51:55.880Z,0.60
2022-10-02T15:54:35.003Z,0.82
2022-10-02T15:57:10.127Z,0.73
2022-10-02T15:59:54.243Z,0.60
2022-10-02T16:02:34.821Z,0.80
2022-10-02T16:05:39.217Z,1.20
2022-10-02T16:08:21.056Z,1.00
2022-10-02T16:11:00.631Z,1.05
2022-10-02T16:13:56.082Z,1.27
2022-10-02T16:16:32.344Z,1.17
2022-10-02T16:19:08.689Z,1.08
2022-10-02T16:21:59.246Z,1.38
2022-10-02T16:25:07.384Z,0.88
2022-10-02T16:27:52.538Z,0.70
2022-10-02T16:30:24.570Z,0.90
2022-10-02T16:33:21.519Z,1.33
2022-10-02T16:36:06.660Z,1.30
2022-10-02T16:38:50.397Z,0.80
2022-10-02T16:41:31.109Z,0.98
2022-10-02T16:44:15.686Z,1.10
2022-10-02T16:46:52.976Z,1.08
2022-10-02T16:49:28.610Z,1.02
2022-10-02T16:52:22.189Z,1.20
2022-10-02T16:55:25.474Z,1.05
2022-10-02T16:57:59.560Z,1.55
2022-10-02T17:00:37.783Z,1.27
2022-10-02T17:03:22.303Z,1.13
2022-10-02T17:06:12.928Z,1.17
2022-10-02T17:09:37.403Z,1.45
2022-10-02T17:12:46.697Z,1.48
2022-10-02T17:15:47.038Z,1.30
2022-10-02T17:18:56.483Z,0.90
2022-10-02T17:21:53.203Z,0.88
2022-10-02T17:24:53.882Z,1.20
2022-10-02T17:27:50.938Z,1.45
2022-10-02T17:30:56.705Z,1.58
2022-10-02T17:33:51.776Z,1.45
2022-10-02T17:36:56.093Z,0.98
2022-10-02T17:40:13.991Z,1.13
2022-10-02T17:43:11.451Z,0.75
2022-10-02T17:46:43.255Z,1.15
2022-10-02T17:49:54.237Z,1.60
2022-10-02T17:53:04.224Z,1.13
2022-10-02T17:56:29.581Z,0.95
2022-10-02T18:00:00.238Z,0.77
2022-10-02T18:03:10.121Z,1.00
2022-10-02T18:06:09.875Z,0.70
2022-10-02T18:09:10.422Z,0.85
2022-10-02T18:12:31.541Z,1.10
2022-10-02T18:15:32.366Z,0.88
2022-10-02T18:18:22.115Z,1.20
2022-10-02T18:21:11.667Z,1.02
2022-10-02T18:24:24.570Z,0.98
2022-10-02T18:27:22.769Z,1.17
2022-10-02T18:30:19.225Z,0.73
2022-10-02T18:33:42.235Z,0.90
2022-10-02T18:36:39.076Z,1.05
2022-10-02T18:39:37.788Z,0.98
2022-10-02T18:42:59.945Z,0.70
2022-10-02T18:46:04.326Z,1.00
2022-10-02T18:49:28.326Z,1.02
2022-10-02T18:52:25.416Z,1.10
2022-10-02T18:55:37.952Z,1.10
2022-10-02T18:58:49.300Z,1.33
2022-10-02T19:02:02.037Z,1.20
2022-10-02T19:05:04.464Z,1.40
2022-10-02T19:08:06.055Z,1.13
2022-10-02T19:10:53.696Z,1.70
2022-10-02T19:13:45.315Z,1.30
2022-10-02T19:16:32.318Z,1.10
2022-10-02T19:19:21.364Z,1.15
2022-10-02T19:22:31.950Z,1.10
2022-10-02T19:25:21.147Z,1.50
2022-10-02T19:28:17.038Z,1.17
2022-10-02T19:31:11.161Z,1.50
2022-10-02T19:34:04.071Z,0.98
2022-10-02T19:36:57.040Z,1.27
2022-10-02T19:39:55.261Z,1.40
2022-10-02T19:42:56.300Z,1.30
2022-10-02T19:45:52.099Z,0.98
2022-10-02T19:48:39.136Z,1.17
2022-10-02T19:51:26.075Z,1.60
2022-10-02T19:54:19.953Z,1.42
2022-10-02T19:57:23.903Z,1.15
2022-10-02T20:00:21.178Z,1.30
2022-10-02T20:03:15.064Z,1.65
2022-10-02T20:06:20.436Z,1.52
2022-10-02T20:09:22.611Z,1.60
2022-10-02T20:12:14.860Z,1.50
2022-10-02T20:15:44.487Z,1.58
2022-10-02T20:18:31.408Z,1.40
2022-10-02T20:21:27.198Z,1.30
2022-10-02T20:24:25.211Z,1.98
2022-10-02T20:27:44.083Z,1.23
2022-10-02T20:30:38.002Z,1.30
2022-10-02T20:33:36.711Z,1.40
2022-10-02T20:36:29.889Z,1.73
2022-10-02T20:39:21.831Z,2.38
2022-10-02T20:42:27.087Z,2.30
2022-10-02T20:45:14.861Z,2.47
2022-10-02T20:48:32.697Z,1.88
2022-10-02T20:51:52.498Z,2.05
2022-10-02T20:54:59.491Z,1.70
2022-10-02T20:58:10.811Z,2.08
2022-10-02T21:01:14.528Z,1.92
2022-10-02T21:07:07.194Z,1.80
2022-10-02T21:10:20.614Z,2.05
2022-10-02T21:13:33.825Z,2.50
2022-10-02T21:17:05.323Z,1.65
2022-10-02T21:20:12.228Z,3.28
2022-10-02T21:23:06.923Z,2.25
2022-10-02T21:25:59.865Z,2.90
2022-10-02T21:29:08.427Z,1.85
2022-10-02T21:32:20.251Z,2.50
2022-10-02T21:35:16.558Z,2.80
2022-10-02T21:38:21.957Z,1.67
2022-10-02T21:41:47.228Z,3.28
2022-10-02T21:45:00.292Z,2.63
2022-10-02T21:48:11.465Z,2.13
2022-10-02T21:51:36.123Z,2.63
2022-10-02T21:54:37.149Z,2.15
2022-10-02T21:57:32.756Z,3.05
2022-10-02T22:00:27.664Z,3.38
2022-10-02T22:03:23.553Z,2.40
2022-10-02T22:06:40.502Z,2.83
2022-10-02T22:10:00.025Z,2.05
2022-10-02T22:13:04.783Z,3.50
2022-10-02T22:16:04.197Z,2.78
2022-10-02T22:19:09.372Z,2.40
2022-10-02T22:22:07.958Z,2.95
2022-10-02T22:25:03.711Z,2.60
2022-10-02T22:28:23.729Z,3.13
2022-10-02T22:31:53.688Z,3.33
2022-10-02T22:34:51.371Z,2.67
2022-10-02T22:38:10.171Z,2.10
2022-10-02T22:41:02.364Z,2.60
2022-10-02T22:44:12.057Z,2.30
2022-10-02T22:47:10.213Z,1.83
2022-10-02T22:50:25.648Z,2.90
2022-10-02T22:53:24.297Z,2.55
2022-10-02T22:56:21.981Z,2.25
2022-10-02T22:59:18.130Z,1.98
2022-10-02T23:02:14.380Z,3.30
2022-10-02T23:05:30.956Z,2.88
2022-10-02T23:08:38.186Z,3.33
2022-10-02T23:11:46.662Z,3.15
2022-10-02T23:15:10.909Z,3.40
2022-10-02T23:20:55.177Z,2.13
2022-10-02T23:24:07.115Z,1.85
2022-10-02T23:26:57.211Z,2.55
2022-10-02T23:29:54.419Z,1.85
2022-10-02T23:32:52.957Z,2.92
2022-10-02T23:35:56.110Z,3.35
2022-10-02T23:38:44.468Z,2.45
2022-10-02T23:41:46.347Z,3.03
2022-10-02T23:44:41.501Z,2.72
2022-10-02T23:47:54.936Z,3.42
2022-10-02T23:50:47.795Z,2.65
2022-10-02T23:54:12.146Z,1.83
2022-10-02T23:57:26.398Z,2.30
